createdAt,value
2022-11-24T00:00:19.270Z,9.822
2022-11-24T00:01:18.211Z,9.822
2022-11-24T00:02:18.341Z,9.833
2022-11-24T00:03:18.302Z,9.843
2022-11-24T00:04:17.785Z,9.854
2022-11-24T00:05:18.449Z,9.822
2022-11-24T00:06:17.614Z,9.864
2022-11-24T00:07:18.229Z,9.822
2022-11-24T00:08:17.810Z,9.822
2022-11-24T00:09:17.818Z,9.812
2022-11-24T00:10:18.274Z,9.843
2022-11-24T00:11:17.791Z,9.864
2022-11-24T00:12:18.504Z,9.875
2022-11-24T00:13:18.166Z,9.854
2022-11-24T00:14:17.650Z,9.864
2022-11-24T00:15:18.740Z,9.875
2022-11-24T00:16:18.246Z,9.875
2022-11-24T00:17:17.846Z,9.864
2022-11-24T00:18:18.416Z,9.854
2022-11-24T00:19:23.298Z,9.875
2022-11-24T00:20:18.417Z,9.875
2022-11-24T00:21:17.842Z,9.875
2022-11-24T00:22:17.954Z,9.875
2022-11-24T00:23:18.282Z,9.875
2022-11-24T00:24:17.774Z,9.875
2022-11-24T00:25:18.499Z,9.875
2022-11-24T00:26:17.854Z,9.875
2022-11-24T00:27:18.393Z,9.875
2022-11-24T00:29:18.233Z,9.875
2022-11-24T00:30:17.970Z,9.875
2022-11-24T00:31:23.826Z,9.875
2022-11-24T00:32:18.088Z,9.875
2022-11-24T00:33:17.569Z,9.875
2022-11-24T00:34:17.710Z,9.875
2022-11-24T00:35:18.304Z,9.875
2022-11-24T00:36:17.924Z,9.875
2022-11-24T00:37:18.128Z,9.875
2022-11-24T00:38:17.231Z,9.875
2022-11-24T00:39:17.720Z,9.875
2022-11-24T00:40:18.443Z,9.875
2022-11-24T00:41:18.563Z,9.875
2022-11-24T00:42:18.366Z,9.875
2022-11-24T00:43:18.327Z,9.875
2022-11-24T00:44:18.041Z,9.875
2022-11-24T00:45:20.904Z,9.875
2022-11-24T00:46:19.302Z,9.875
2022-11-24T00:47:18.583Z,9.875
2022-11-24T00:48:18.292Z,9.875
2022-11-24T00:49:18.284Z,9.875
2022-11-24T00:50:18.416Z,9.875
2022-11-24T00:51:18.133Z,9.875
2022-11-24T00:52:18.213Z,9.875
2022-11-24T00:53:18.180Z,9.875
2022-11-24T00:54:18.052Z,9.875
2022-11-24T00:55:17.872Z,9.875
2022-11-24T00:56:18.568Z,9.875
2022-11-24T00:57:18.561Z,9.875
2022-11-24T00:58:18.264Z,9.875
2022-11-24T00:59:18.142Z,9.875
2022-11-24T01:00:32.923Z,9.875
2022-11-24T01:02:33.072Z,9.875
2022-11-24T01:03:18.106Z,9.875
2022-11-24T01:04:17.997Z,9.875
2022-11-24T01:05:17.997Z,9.875
2022-11-24T01:06:17.765Z,9.875
2022-11-24T01:07:18.441Z,9.875
2022-11-24T01:08:18.191Z,9.875
2022-11-24T01:09:18.024Z,9.875
2022-11-24T01:10:18.353Z,9.875
2022-11-24T01:11:18.273Z,9.875
2022-11-24T01:12:18.513Z,9.875
2022-11-24T01:13:18.541Z,9.875
2022-11-24T01:14:18.418Z,9.864
2022-11-24T01:15:18.108Z,9.854
2022-11-24T01:16:18.225Z,9.864
2022-11-24T01:17:18.124Z,9.875
2022-11-24T01:18:17.884Z,9.864
2022-11-24T01:19:18.871Z,9.875
2022-11-24T01:20:18.857Z,9.875
2022-11-24T01:21:18.451Z,9.843
2022-11-24T01:22:18.059Z,9.854
2022-11-24T01:23:17.930Z,9.854
2022-11-24T01:24:18.711Z,9.833
2022-11-24T01:25:18.556Z,9.843
2022-11-24T01:26:18.155Z,9.822
2022-11-24T01:27:17.755Z,9.812
2022-11-24T01:28:18.303Z,9.812
2022-11-24T01:29:17.976Z,9.812
2022-11-24T01:30:19.039Z,9.812
2022-11-24T01:31:18.039Z,9.812
2022-11-24T01:32:17.712Z,9.812
2022-11-24T01:33:18.504Z,9.812
2022-11-24T01:34:18.116Z,9.812
2022-11-24T01:35:18.293Z,9.812
2022-11-24T01:36:17.960Z,9.812
2022-11-24T01:37:18.673Z,9.812
2022-11-24T01:38:18.588Z,9.812
2022-11-24T01:39:18.208Z,9.812
2022-11-24T01:40:18.324Z,9.812
2022-11-24T01:41:18.216Z,9.812
2022-11-24T01:42:17.883Z,9.812
2022-11-24T01:43:18.404Z,9.812
2022-11-24T01:44:18.062Z,9.812
2022-11-24T01:45:17.894Z,9.812
2022-11-24T01:46:18.871Z,9.812
2022-11-24T01:47:18.948Z,9.812
2022-11-24T01:48:21.132Z,9.812
2022-11-24T01:49:17.923Z,9.812
2022-11-24T01:50:18.848Z,9.812
2022-11-24T01:51:18.303Z,9.812
2022-11-24T01:52:17.933Z,9.812
2022-11-24T01:53:18.575Z,9.812
2022-11-24T01:54:18.004Z,9.812
2022-11-24T01:55:17.677Z,9.812
2022-11-24T01:56:18.119Z,9.812
2022-11-24T01:57:17.635Z,9.812
2022-11-24T01:58:18.077Z,9.812
2022-11-24T01:59:18.114Z,9.812
2022-11-24T02:00:18.762Z,9.812
2022-11-24T02:01:18.538Z,9.812
2022-11-24T02:02:18.338Z,9.833
2022-11-24T02:03:18.169Z,9.812
2022-11-24T02:04:17.525Z,9.812
2022-11-24T02:05:18.499Z,9.812
2022-11-24T02:06:17.958Z,9.812
2022-11-24T02:07:18.591Z,9.812
2022-11-24T02:08:18.238Z,9.812
2022-11-24T02:09:17.615Z,9.812
2022-11-24T02:10:18.284Z,9.812
2022-11-24T02:11:17.747Z,9.812
2022-11-24T02:12:18.481Z,9.812
2022-11-24T02:13:17.833Z,9.812
2022-11-24T02:14:18.226Z,9.812
2022-11-24T02:15:18.036Z,9.812
2022-11-24T02:16:17.884Z,9.812
2022-11-24T02:17:18.599Z,9.812
2022-11-24T02:18:17.999Z,9.812
2022-11-24T02:19:17.456Z,9.812
2022-11-24T02:20:18.141Z,9.812
2022-11-24T02:21:18.010Z,9.812
2022-11-24T02:22:17.501Z,9.812
2022-11-24T02:23:18.169Z,9.812
2022-11-24T02:24:17.882Z,9.812
2022-11-24T02:25:18.603Z,9.812
2022-11-24T02:26:18.267Z,9.812
2022-11-24T02:27:17.891Z,9.812
2022-11-24T02:28:18.289Z,9.812
2022-11-24T02:29:17.804Z,9.812
2022-11-24T02:30:18.665Z,9.812
2022-11-24T02:31:18.556Z,9.812
2022-11-24T02:32:17.990Z,9.812
2022-11-24T02:33:17.416Z,9.812
2022-11-24T02:34:17.759Z,9.812
2022-11-24T02:35:18.415Z,9.812
2022-11-24T02:36:17.913Z,9.812
2022-11-24T02:37:17.565Z,9.812
2022-11-24T02:38:18.014Z,9.812
2022-11-24T02:39:17.510Z,9.822
2022-11-24T02:40:18.255Z,9.812
2022-11-24T02:41:17.460Z,9.812
2022-11-24T02:42:17.928Z,9.812
2022-11-24T02:43:18.251Z,9.812
2022-11-24T02:44:17.600Z,9.812
2022-11-24T02:45:18.187Z,9.812
2022-11-24T02:46:17.836Z,9.812
2022-11-24T02:47:18.068Z,9.812
2022-11-24T02:48:17.308Z,9.812
2022-11-24T02:49:17.771Z,9.812
2022-11-24T02:50:18.365Z,9.812
2022-11-24T02:51:17.627Z,9.812
2022-11-24T02:52:18.265Z,9.812
2022-11-24T02:53:17.761Z,9.812
2022-11-24T02:54:18.240Z,9.812
2022-11-24T02:55:17.784Z,9.812
2022-11-24T02:56:18.383Z,9.812
2022-11-24T02:57:17.777Z,9.812
2022-11-24T02:58:18.474Z,9.812
2022-11-24T02:59:18.066Z,9.812
2022-11-24T03:00:18.394Z,9.812
2022-11-24T03:01:23.191Z,9.812
2022-11-24T03:02:17.974Z,9.812
2022-11-24T03:03:17.975Z,9.812
2022-11-24T03:04:18.236Z,9.812
2022-11-24T03:05:18.241Z,9.812
2022-11-24T03:06:17.698Z,9.812
2022-11-24T03:07:18.404Z,9.812
2022-11-24T03:08:17.978Z,9.812
2022-11-24T03:09:17.893Z,9.812
2022-11-24T03:10:18.621Z,9.812
2022-11-24T03:11:18.155Z,9.812
2022-11-24T03:12:17.729Z,9.812
2022-11-24T03:13:18.203Z,9.812
2022-11-24T03:14:17.761Z,9.812
2022-11-24T03:15:18.451Z,9.812
2022-11-24T03:16:17.853Z,9.812
2022-11-24T03:17:18.360Z,9.812
2022-11-24T03:18:17.802Z,9.812
2022-11-24T03:19:17.629Z,9.812
2022-11-24T03:20:18.105Z,9.812
2022-11-24T03:21:17.416Z,9.812
2022-11-24T03:22:17.655Z,9.812
2022-11-24T03:23:18.127Z,9.812
2022-11-24T03:24:17.821Z,9.812
2022-11-24T03:25:18.257Z,9.812
2022-11-24T03:26:17.792Z,9.812
2022-11-24T03:27:18.178Z,9.812
2022-11-24T03:28:17.458Z,9.812
2022-11-24T03:29:18.051Z,9.812
2022-11-24T03:30:17.940Z,9.812
2022-11-24T03:31:18.506Z,9.812
2022-11-24T03:32:18.111Z,9.824
2022-11-24T03:33:17.315Z,9.829
2022-11-24T03:34:17.677Z,9.862
2022-11-24T03:35:18.150Z,9.857
2022-11-24T03:36:17.713Z,9.849
2022-11-24T03:37:18.236Z,9.875
2022-11-24T03:38:17.998Z,9.875
2022-11-24T03:39:17.481Z,9.875
2022-11-24T03:40:18.187Z,9.875
2022-11-24T03:41:17.908Z,9.875
2022-11-24T03:42:18.235Z,9.875
2022-11-24T03:43:17.959Z,9.875
2022-11-24T03:44:18.079Z,9.875
2022-11-24T03:45:50.973Z,9.875
2022-11-24T03:46:18.593Z,9.875
2022-11-24T03:47:18.077Z,9.866
2022-11-24T03:48:17.914Z,9.875
2022-11-24T03:49:18.438Z,9.875
2022-11-24T03:50:17.931Z,9.864
2022-11-24T03:51:18.274Z,9.875
2022-11-24T03:52:17.658Z,9.875
2022-11-24T03:53:18.265Z,9.875
2022-11-24T03:54:17.767Z,9.875
2022-11-24T03:55:18.454Z,9.875
2022-11-24T03:56:17.942Z,9.875
2022-11-24T03:57:18.523Z,9.875
2022-11-24T03:58:18.059Z,9.875
2022-11-24T03:59:17.710Z,9.875
2022-11-24T04:00:19.325Z,9.875
2022-11-24T04:01:17.977Z,9.875
2022-11-24T04:02:18.036Z,9.875
2022-11-24T04:03:17.969Z,9.875
2022-11-24T04:04:18.238Z,9.875
2022-11-24T04:05:18.102Z,9.875
2022-11-24T04:06:17.360Z,9.875
2022-11-24T04:07:18.120Z,9.875
2022-11-24T04:08:17.617Z,9.875
2022-11-24T04:09:18.421Z,9.875
2022-11-24T04:10:18.327Z,9.875
2022-11-24T04:11:17.990Z,9.875
2022-11-24T04:12:17.452Z,9.875
2022-11-24T04:13:18.037Z,9.875
2022-11-24T04:14:20.351Z,9.875
2022-11-24T04:15:17.977Z,9.875
2022-11-24T04:16:18.387Z,9.875
2022-11-24T04:17:18.173Z,9.875
2022-11-24T04:18:17.875Z,9.875
2022-11-24T04:19:17.651Z,9.875
2022-11-24T04:20:18.534Z,9.875
2022-11-24T04:21:18.492Z,9.875
2022-11-24T04:22:17.972Z,9.875
2022-11-24T04:23:18.339Z,9.875
2022-11-24T04:24:17.748Z,9.875
2022-11-24T04:25:18.737Z,9.875
2022-11-24T04:26:17.988Z,9.875
2022-11-24T04:27:17.530Z,9.875
2022-11-24T04:28:18.011Z,9.875
2022-11-24T04:29:17.777Z,9.875
2022-11-24T04:30:19.035Z,9.875
2022-11-24T04:31:17.774Z,9.875
2022-11-24T04:32:18.322Z,9.875
2022-11-24T04:33:17.936Z,9.875
2022-11-24T04:34:18.238Z,9.875
2022-11-24T04:35:17.910Z,9.875
2022-11-24T04:36:18.280Z,9.875
2022-11-24T04:37:18.124Z,9.875
2022-11-24T04:39:24.377Z,9.875
2022-11-24T04:39:32.252Z,9.875
2022-11-24T04:40:17.819Z,9.875
2022-11-24T04:41:18.653Z,9.875
2022-11-24T04:42:18.263Z,9.875
2022-11-24T04:43:17.871Z,9.875
2022-11-24T04:44:18.345Z,9.875
2022-11-24T04:45:18.255Z,9.875
2022-11-24T04:46:17.832Z,9.875
2022-11-24T04:47:18.574Z,9.875
2022-11-24T04:48:18.076Z,9.875
2022-11-24T04:49:17.728Z,9.875
2022-11-24T04:50:18.258Z,9.875
2022-11-24T04:51:17.686Z,9.875
2022-11-24T04:52:18.104Z,9.875
2022-11-24T04:53:17.760Z,9.875
2022-11-24T04:54:18.371Z,9.875
2022-11-24T04:55:18.391Z,9.875
2022-11-24T04:56:17.520Z,9.875
2022-11-24T04:57:17.583Z,9.875
2022-11-24T04:58:17.959Z,9.875
2022-11-24T04:59:18.526Z,9.875
2022-11-24T05:00:19.060Z,9.895
2022-11-24T05:01:17.749Z,9.885
2022-11-24T05:02:18.733Z,9.875
2022-11-24T05:03:18.250Z,9.875
2022-11-24T05:04:17.951Z,9.875
2022-11-24T05:05:17.713Z,9.883
2022-11-24T05:06:18.257Z,9.875
2022-11-24T05:07:24.652Z,9.924
2022-11-24T05:09:18.653Z,9.928
2022-11-24T05:10:18.682Z,9.937
2022-11-24T05:11:18.394Z,9.919
2022-11-24T05:12:17.917Z,9.912
2022-11-24T05:13:18.396Z,9.875
2022-11-24T05:14:18.095Z,9.887
2022-11-24T05:15:17.742Z,9.892
2022-11-24T05:16:18.629Z,9.912
2022-11-24T05:17:18.190Z,9.937
2022-11-24T05:18:17.943Z,9.924
2022-11-24T05:19:18.837Z,9.928
2022-11-24T05:20:18.606Z,9.937
2022-11-24T05:21:17.855Z,9.926
2022-11-24T05:22:18.459Z,9.937
2022-11-24T05:23:18.010Z,9.937
2022-11-24T05:24:17.365Z,9.937
2022-11-24T05:25:18.500Z,9.937
2022-11-24T05:26:31.806Z,9.937
2022-11-24T05:27:18.335Z,9.937
2022-11-24T05:28:17.987Z,9.937
2022-11-24T05:29:18.594Z,9.937
2022-11-24T05:30:18.245Z,9.937
2022-11-24T05:31:18.146Z,9.937
2022-11-24T05:32:18.101Z,9.937
2022-11-24T05:33:17.591Z,9.937
2022-11-24T05:34:18.422Z,9.937
2022-11-24T05:35:18.242Z,9.937
2022-11-24T05:36:17.880Z,9.937
2022-11-24T05:37:18.306Z,9.937
2022-11-24T05:38:17.765Z,9.937
2022-11-24T05:39:18.387Z,9.937
2022-11-24T05:40:18.218Z,9.937
2022-11-24T05:41:18.233Z,9.937
2022-11-24T05:42:17.960Z,9.937
2022-11-24T05:43:18.528Z,9.937
2022-11-24T05:44:18.097Z,9.937
2022-11-24T05:45:18.078Z,9.937
2022-11-24T05:46:18.047Z,9.937
2022-11-24T05:47:17.933Z,9.937
2022-11-24T05:48:18.175Z,9.937
2022-11-24T05:49:17.986Z,9.937
2022-11-24T05:50:17.486Z,9.937
2022-11-24T05:51:18.259Z,9.937
2022-11-24T05:52:17.738Z,9.937
2022-11-24T05:53:18.279Z,9.937
2022-11-24T05:54:17.788Z,9.937
2022-11-24T05:55:18.582Z,9.937
2022-11-24T05:56:18.297Z,9.937
2022-11-24T05:57:17.954Z,9.937
2022-11-24T05:58:18.721Z,9.937
2022-11-24T05:59:18.322Z,9.937
2022-11-24T06:00:18.779Z,9.937
2022-11-24T06:01:18.283Z,9.937
2022-11-24T06:02:18.225Z,9.937
2022-11-24T06:03:17.991Z,9.937
2022-11-24T06:04:17.316Z,9.937
2022-11-24T06:05:18.252Z,9.937
2022-11-24T06:06:18.010Z,9.937
2022-11-24T06:07:17.948Z,9.937
2022-11-24T06:08:18.445Z,9.937
2022-11-24T06:09:18.190Z,9.937
2022-11-24T06:10:18.048Z,9.947
2022-11-24T06:11:18.155Z,9.937
2022-11-24T06:12:17.774Z,9.937
2022-11-24T06:13:18.764Z,9.937
2022-11-24T06:14:18.623Z,9.947
2022-11-24T06:15:18.519Z,9.947
2022-11-24T06:16:18.399Z,9.937
2022-11-24T06:17:18.494Z,9.937
2022-11-24T06:18:17.829Z,9.937
2022-11-24T06:19:18.781Z,9.937
2022-11-24T06:20:18.644Z,9.937
2022-11-24T06:21:18.822Z,9.937
2022-11-24T06:22:18.158Z,9.947
2022-11-24T06:23:17.766Z,9.937
2022-11-24T06:24:18.385Z,9.947
2022-11-24T06:25:18.354Z,9.937
2022-11-24T06:26:18.495Z,9.937
2022-11-24T06:27:18.545Z,9.937
2022-11-24T06:28:18.221Z,9.937
2022-11-24T06:29:17.847Z,9.937
2022-11-24T06:30:18.500Z,9.937
2022-11-24T06:31:18.488Z,9.937
2022-11-24T06:32:17.987Z,9.937
2022-11-24T06:33:17.595Z,9.937
2022-11-24T06:34:18.158Z,9.937
2022-11-24T06:35:18.316Z,9.937
2022-11-24T06:36:17.962Z,9.937
2022-11-24T06:37:18.681Z,9.937
2022-11-24T06:38:24.127Z,9.937
2022-11-24T06:39:18.247Z,9.937
2022-11-24T06:40:18.074Z,9.937
2022-11-24T06:41:17.653Z,9.937
2022-11-24T06:42:18.176Z,9.937
2022-11-24T06:43:17.783Z,9.937
2022-11-24T06:44:18.498Z,9.937
2022-11-24T06:45:18.291Z,9.937
2022-11-24T06:46:18.120Z,9.937
2022-11-24T06:47:17.855Z,9.937
2022-11-24T06:48:18.614Z,9.937
2022-11-24T06:49:18.363Z,9.937
2022-11-24T06:50:18.226Z,9.937
2022-11-24T06:51:17.768Z,9.937
2022-11-24T06:52:18.528Z,9.937
2022-11-24T06:53:18.146Z,9.937
2022-11-24T06:54:17.791Z,9.937
2022-11-24T06:55:18.528Z,9.937
2022-11-24T06:57:17.592Z,9.937
2022-11-24T06:58:18.140Z,9.937
2022-11-24T06:59:17.851Z,9.937
2022-11-24T07:00:19.332Z,9.937
2022-11-24T07:01:18.012Z,9.937
2022-11-24T07:02:17.788Z,9.924
2022-11-24T07:03:18.385Z,9.937
2022-11-24T07:04:18.070Z,9.926
2022-11-24T07:05:17.933Z,9.895
2022-11-24T07:06:17.751Z,9.885
2022-11-24T07:07:18.627Z,9.895
2022-11-24T07:09:18.299Z,9.875
2022-11-24T07:10:18.359Z,9.875
2022-11-24T07:11:17.964Z,9.875
2022-11-24T07:12:18.751Z,9.875
2022-11-24T07:13:18.872Z,9.875
2022-11-24T07:14:18.752Z,9.875
2022-11-24T07:15:18.711Z,9.875
2022-11-24T07:16:18.654Z,9.875
2022-11-24T07:17:18.226Z,9.875
2022-11-24T07:18:18.373Z,9.875
2022-11-24T07:19:24.404Z,9.875
2022-11-24T07:20:18.892Z,9.875
2022-11-24T07:21:18.547Z,9.875
2022-11-24T07:22:18.332Z,9.875
2022-11-24T07:23:18.019Z,9.875
2022-11-24T07:24:17.706Z,9.875
2022-11-24T07:25:18.900Z,9.875
2022-11-24T07:26:18.535Z,9.875
2022-11-24T07:27:18.398Z,9.843
2022-11-24T07:28:17.983Z,9.854
2022-11-24T07:29:18.715Z,9.854
2022-11-24T07:30:18.564Z,9.822
2022-11-24T07:31:18.220Z,9.812
2022-11-24T07:32:18.401Z,9.812
2022-11-24T07:33:18.169Z,9.812
2022-11-24T07:34:18.010Z,9.812
2022-11-24T07:35:18.231Z,9.812
2022-11-24T07:36:18.402Z,9.812
2022-11-24T07:37:18.581Z,9.812
2022-11-24T07:38:18.595Z,9.812
2022-11-24T07:39:18.615Z,9.812
2022-11-24T07:40:18.647Z,9.812
2022-11-24T07:41:18.412Z,9.812
2022-11-24T07:42:17.987Z,9.812
2022-11-24T07:43:23.613Z,9.812
2022-11-24T07:44:18.606Z,9.812
2022-11-24T07:45:18.616Z,9.812
2022-11-24T07:46:18.823Z,9.812
2022-11-24T07:47:18.792Z,9.812
2022-11-24T07:48:18.790Z,9.791
2022-11-24T07:49:18.380Z,9.75
2022-11-24T07:50:18.223Z,9.75
2022-11-24T07:51:18.195Z,9.75
2022-11-24T07:52:18.066Z,9.75
2022-11-24T07:53:17.655Z,9.75
2022-11-24T07:54:16.893Z,9.75
2022-11-24T07:55:18.964Z,9.75
2022-11-24T07:56:18.680Z,9.75
2022-11-24T07:57:18.697Z,9.75
2022-11-24T07:58:18.298Z,9.75
2022-11-24T07:59:18.208Z,9.75
2022-11-24T08:00:18.633Z,9.75
2022-11-24T08:01:18.927Z,9.75
2022-11-24T08:02:18.081Z,9.75
2022-11-24T08:03:32.282Z,9.75
2022-11-24T08:04:18.462Z,9.75
2022-11-24T08:05:49.169Z,9.708
2022-11-24T08:06:39.730Z,9.697
2022-11-24T08:07:18.005Z,9.697
2022-11-24T08:08:18.357Z,9.697
2022-11-24T08:09:18.200Z,9.687
2022-11-24T08:10:18.224Z,9.687
2022-11-24T08:11:18.277Z,9.687
2022-11-24T08:12:18.507Z,9.687
2022-11-24T08:13:18.639Z,9.687
2022-11-24T08:14:18.629Z,9.687
2022-11-24T08:15:18.655Z,9.687
2022-11-24T08:16:18.645Z,9.687
2022-11-24T08:17:19.171Z,9.687
2022-11-24T08:18:18.200Z,9.687
2022-11-24T08:19:37.245Z,9.687
2022-11-24T08:20:18.447Z,9.687
2022-11-24T08:21:18.180Z,9.687
2022-11-24T08:22:17.845Z,9.687
2022-11-24T08:23:18.866Z,9.687
2022-11-24T08:24:18.827Z,9.687
2022-11-24T08:25:18.952Z,9.687
2022-11-24T08:26:19.422Z,9.687
2022-11-24T08:27:18.468Z,9.687
2022-11-24T08:28:18.607Z,9.687
2022-11-24T08:29:18.605Z,9.687
2022-11-24T08:30:18.905Z,9.687
2022-11-24T08:31:19.086Z,9.687
2022-11-24T08:32:22.155Z,9.687
2022-11-24T08:33:18.265Z,9.687
2022-11-24T08:34:18.152Z,9.687
2022-11-24T08:35:21.396Z,9.687
2022-11-24T08:36:18.444Z,9.687
2022-11-24T08:37:18.660Z,9.687
2022-11-24T08:38:18.436Z,9.739
2022-11-24T08:39:18.441Z,9.729
2022-11-24T08:40:18.699Z,9.75
2022-11-24T08:41:18.639Z,9.75
2022-11-24T08:42:18.454Z,9.75
2022-11-24T08:43:18.838Z,9.75
2022-11-24T08:44:18.879Z,9.75
2022-11-24T08:45:30.651Z,9.75
2022-11-24T08:46:19.420Z,9.75
2022-11-24T08:47:18.351Z,9.75
2022-11-24T08:48:18.284Z,9.75
2022-11-24T08:49:18.148Z,9.75
2022-11-24T08:50:18.139Z,9.75
2022-11-24T08:51:18.186Z,9.75
2022-11-24T08:52:18.023Z,9.75
2022-11-24T08:53:18.147Z,9.75
2022-11-24T08:54:18.045Z,9.75
2022-11-24T08:55:18.289Z,9.75
2022-11-24T08:56:18.044Z,9.75
2022-11-24T08:57:21.824Z,9.75
2022-11-24T08:58:17.934Z,9.75
2022-11-24T08:59:18.888Z,9.75
2022-11-24T09:00:19.585Z,9.791
2022-11-24T09:01:18.759Z,9.801
2022-11-24T09:02:18.818Z,9.812
2022-11-24T09:03:18.731Z,9.812
2022-11-24T09:04:18.536Z,9.801
2022-11-24T09:05:57.345Z,9.812
2022-11-24T09:06:18.182Z,9.812
2022-11-24T09:07:18.137Z,9.812
2022-11-24T09:08:18.201Z,9.812
2022-11-24T09:09:18.037Z,9.812
2022-11-24T09:10:18.132Z,9.812
2022-11-24T09:11:18.016Z,9.812
2022-11-24T09:12:21.616Z,9.812
2022-11-24T09:13:18.415Z,9.812
2022-11-24T09:14:18.471Z,9.812
2022-11-24T09:15:18.744Z,9.812
2022-11-24T09:16:18.831Z,9.812
2022-11-24T09:17:18.663Z,9.812
2022-11-24T09:18:18.342Z,9.812
2022-11-24T09:19:18.418Z,9.812
2022-11-24T09:20:18.601Z,9.812
2022-11-24T09:21:18.608Z,9.812
2022-11-24T09:22:18.454Z,9.822
2022-11-24T09:23:18.384Z,9.812
2022-11-24T09:24:18.145Z,9.812
2022-11-24T09:25:18.016Z,9.812
2022-11-24T09:26:18.048Z,9.812
2022-11-24T09:27:17.962Z,9.822
2022-11-24T09:28:18.897Z,9.843
2022-11-24T09:29:18.628Z,9.854
2022-11-24T09:30:18.837Z,9.854
2022-11-24T09:31:19.114Z,9.864
2022-11-24T09:32:18.231Z,9.875
2022-11-24T09:33:18.114Z,9.812
2022-11-24T09:34:18.366Z,9.822
2022-11-24T09:35:18.630Z,9.843
2022-11-24T09:36:17.281Z,9.843
2022-11-24T09:37:18.058Z,9.843
2022-11-24T09:38:17.841Z,9.875
2022-11-24T09:39:18.912Z,9.875
2022-11-24T09:40:19.030Z,9.875
2022-11-24T09:41:17.967Z,9.875
2022-11-24T09:42:19.038Z,9.875
2022-11-24T09:43:18.210Z,9.875
2022-11-24T09:44:18.296Z,9.875
2022-11-24T09:45:30.401Z,9.875
2022-11-24T09:46:18.737Z,9.875
2022-11-24T09:47:18.835Z,9.875
2022-11-24T09:48:18.899Z,9.875
2022-11-24T09:49:18.638Z,9.875
2022-11-24T09:50:18.694Z,9.875
2022-11-24T09:51:18.981Z,9.875
2022-11-24T09:52:19.279Z,9.875
2022-11-24T09:53:18.697Z,9.875
2022-11-24T09:54:18.987Z,9.875
2022-11-24T09:55:17.962Z,9.875
2022-11-24T09:56:18.822Z,9.875
2022-11-24T09:57:18.913Z,9.875
2022-11-24T09:58:18.787Z,9.875
2022-11-24T09:59:18.803Z,9.875
2022-11-24T10:00:19.819Z,9.875
2022-11-24T10:01:19.123Z,9.875
2022-11-24T10:02:22.944Z,9.887
2022-11-24T10:03:19.058Z,9.885
2022-11-24T10:04:18.169Z,9.916
2022-11-24T10:05:18.352Z,9.906
2022-11-24T10:06:18.297Z,9.885
2022-11-24T10:07:18.331Z,9.916
2022-11-24T10:09:19.143Z,9.937
2022-11-24T10:10:24.325Z,9.937
2022-11-24T10:11:19.097Z,9.937
2022-11-24T10:12:23.502Z,9.937
2022-11-24T10:13:19.095Z,9.937
2022-11-24T10:14:18.532Z,9.937
2022-11-24T10:15:19.258Z,9.937
2022-11-24T10:16:32.365Z,9.937
2022-11-24T10:17:18.798Z,9.937
2022-11-24T10:19:18.950Z,9.937
2022-11-24T10:20:19.821Z,9.937
2022-11-24T10:21:19.276Z,9.937
2022-11-24T10:22:18.939Z,9.937
2022-11-24T10:23:19.522Z,9.937
2022-11-24T10:24:18.646Z,9.937
2022-11-24T10:25:19.144Z,9.947
2022-11-24T10:26:18.582Z,9.937
2022-11-24T10:27:20.046Z,9.947
2022-11-24T10:28:19.358Z,9.937
2022-11-24T10:29:19.072Z,9.958
2022-11-24T10:30:19.196Z,9.968
2022-11-24T10:31:19.096Z,9.937
2022-11-24T10:32:18.651Z,9.958
2022-11-24T10:33:18.875Z,9.937
2022-11-24T10:34:19.065Z,9.958
2022-11-24T10:35:18.758Z,9.968
2022-11-24T10:36:19.243Z,10
2022-11-24T10:37:18.852Z,10
2022-11-24T10:38:19.252Z,9.989
2022-11-24T10:39:18.953Z,10
2022-11-24T10:40:57.387Z,10
2022-11-24T10:41:19.631Z,10
2022-11-24T10:42:19.238Z,10
2022-11-24T10:43:18.890Z,10
2022-11-24T10:44:19.024Z,10
2022-11-24T10:45:18.264Z,10
2022-11-24T10:46:19.125Z,10
2022-11-24T10:47:18.703Z,10
2022-11-24T10:48:19.347Z,10
2022-11-24T10:49:19.150Z,10
2022-11-24T10:50:18.844Z,10
2022-11-24T10:51:19.182Z,10
2022-11-24T10:52:18.198Z,10
2022-11-24T10:53:18.056Z,10
2022-11-24T10:54:18.271Z,10
2022-11-24T10:55:21.556Z,10
2022-11-24T10:56:19.192Z,10
2022-11-24T10:57:18.514Z,10
2022-11-24T10:58:18.638Z,10
2022-11-24T10:59:19.263Z,10
2022-11-24T11:00:47.393Z,10
2022-11-24T11:01:19.289Z,10
2022-11-24T11:02:46.384Z,10
2022-11-24T11:03:18.604Z,10
2022-11-24T11:04:18.909Z,10
2022-11-24T11:05:19.536Z,10
2022-11-24T11:06:18.919Z,10
2022-11-24T11:07:19.471Z,10
2022-11-24T11:08:19.365Z,10
2022-11-24T11:09:18.731Z,10
2022-11-24T11:10:19.299Z,10
2022-11-24T11:11:18.927Z,10
2022-11-24T11:12:49.915Z,10.00
2022-11-24T11:13:19.137Z,10.00
2022-11-24T11:14:18.484Z,10.01
2022-11-24T11:15:19.520Z,10
2022-11-24T11:16:19.185Z,10
2022-11-24T11:17:18.816Z,10
2022-11-24T11:18:19.038Z,10
2022-11-24T11:20:00.309Z,10
2022-11-24T11:20:18.655Z,10
2022-11-24T11:21:19.138Z,10
2022-11-24T11:22:18.820Z,10.01
2022-11-24T11:23:19.438Z,10.06
2022-11-24T11:24:18.632Z,10.06
2022-11-24T11:25:19.352Z,10.06
2022-11-24T11:26:18.619Z,10.06
2022-11-24T11:27:18.431Z,10.06
2022-11-24T11:31:19.114Z,10.06
2022-11-24T11:31:24.759Z,10.06
2022-11-24T11:34:06.201Z,10.06
2022-11-24T11:34:30.653Z,10.06
2022-11-24T11:35:19.693Z,10.06
2022-11-24T11:36:19.441Z,10.06
2022-11-24T11:37:18.933Z,10.06
2022-11-24T11:38:19.379Z,10.06
2022-11-24T11:39:18.615Z,10.10
2022-11-24T11:40:20.508Z,10.11
2022-11-24T11:41:19.001Z,10.09
2022-11-24T11:43:01.434Z,10.11
2022-11-24T11:43:19.439Z,10.11
2022-11-24T11:44:18.585Z,10.12
2022-11-24T11:45:19.251Z,10.11
2022-11-24T11:46:19.205Z,10.12
2022-11-24T11:47:18.603Z,10.10
2022-11-24T11:48:18.719Z,10.12
2022-11-24T11:49:19.116Z,10.12
2022-11-24T11:50:18.646Z,10.12
2022-11-24T11:51:30.921Z,10.12
2022-11-24T11:52:18.424Z,10.12
2022-11-24T11:53:18.966Z,10.12
2022-11-24T11:54:19.410Z,10.12
2022-11-24T11:55:18.773Z,10.12
2022-11-24T11:56:19.549Z,10.12
2022-11-24T11:57:18.866Z,10.12
2022-11-24T11:58:19.068Z,10.12
2022-11-24T11:59:18.465Z,10.12
2022-11-24T12:00:19.432Z,10.12
2022-11-24T12:01:18.999Z,10.12
2022-11-24T12:02:18.456Z,10.12
2022-11-24T12:03:19.109Z,10.12
2022-11-24T12:04:18.760Z,10.12
2022-11-24T12:05:19.126Z,10.12
2022-11-24T12:06:18.029Z,10.12
2022-11-24T12:07:18.232Z,10.12
2022-11-24T12:09:27.971Z,10.12
2022-11-24T12:10:19.488Z,10.12
2022-11-24T12:11:18.548Z,10.12
2022-11-24T12:12:18.367Z,10.12
2022-11-24T12:13:18.062Z,10.12
2022-11-24T12:14:17.889Z,10.13
2022-11-24T12:15:19.280Z,10.13
2022-11-24T12:16:18.398Z,10.12
2022-11-24T12:17:18.576Z,10.14
2022-11-24T12:18:57.749Z,10.12
2022-11-24T12:19:17.971Z,10.12
2022-11-24T12:20:18.931Z,10.13
2022-11-24T12:21:24.669Z,10.17
2022-11-24T12:22:18.163Z,10.18
2022-11-24T12:23:18.203Z,10.14
2022-11-24T12:24:18.663Z,10.14
2022-11-24T12:25:23.586Z,10.13
2022-11-24T12:26:18.855Z,10.13
2022-11-24T12:27:30.062Z,10.16
2022-11-24T12:28:18.206Z,10.16
2022-11-24T12:29:18.468Z,10.18
2022-11-24T12:30:19.012Z,10.18
2022-11-24T12:31:19.203Z,10.17
2022-11-24T12:32:18.575Z,10.17
2022-11-24T12:33:19.136Z,10.14
2022-11-24T12:34:18.047Z,10.15
2022-11-24T12:35:18.254Z,10.15
2022-11-24T12:36:18.295Z,10.17
2022-11-24T12:37:18.413Z,10.15
2022-11-24T12:38:18.526Z,10.18
2022-11-24T12:39:18.267Z,10.18
2022-11-24T12:40:18.631Z,10.18
2022-11-24T12:41:49.123Z,10.18
2022-11-24T12:42:18.011Z,10.18
2022-11-24T12:43:23.147Z,10.18
2022-11-24T12:44:18.195Z,10.18
2022-11-24T12:45:18.360Z,10.18
2022-11-24T12:47:32.632Z,10.18
2022-11-24T12:48:18.549Z,10.18
2022-11-24T12:49:18.526Z,10.18
2022-11-24T12:50:18.712Z,10.21
2022-11-24T12:51:18.535Z,10.19
2022-11-24T12:52:18.771Z,10.18
2022-11-24T12:53:18.498Z,10.18
2022-11-24T12:54:18.509Z,10.18
2022-11-24T12:55:18.759Z,10.18
2022-11-24T12:56:19.105Z,10.18
2022-11-24T12:57:18.260Z,10.21
2022-11-24T12:58:18.755Z,10.21
2022-11-24T12:59:37.820Z,10.19
2022-11-24T13:00:20.326Z,10.19
2022-11-24T13:01:31.730Z,10.19
2022-11-24T13:02:19.785Z,10.19
2022-11-24T13:03:33.561Z,10.21
2022-11-24T13:04:19.275Z,10.23
2022-11-24T13:05:18.494Z,10.20
2022-11-24T13:06:18.948Z,10.23
2022-11-24T13:07:33.618Z,10.23
2022-11-24T13:08:19.364Z,10.25
2022-11-24T13:09:18.748Z,10.25